createdAt,value
2022-11-24T00:00:26.442Z,99924.00
2022-11-24T00:03:05.072Z,99927.60
2022-11-24T00:05:42.368Z,99926.20
2022-11-24T00:08:18.889Z,99921.80
2022-11-24T00:10:56.099Z,99923.60
2022-11-24T00:13:33.635Z,99928.60
2022-11-24T00:16:17.188Z,99937.60
2022-11-24T00:18:55.380Z,99945.00
2022-11-24T00:21:33.051Z,99940.20
2022-11-24T00:24:10.118Z,99941.60
2022-11-24T00:26:46.522Z,99950.40
2022-11-24T00:29:24.062Z,99956.20
2022-11-24T00:32:02.673Z,99955.00
2022-11-24T00:34:39.695Z,99957.20
2022-11-24T00:37:17.084Z,99965.00
2022-11-24T00:39:53.124Z,99966.60
2022-11-24T00:42:29.850Z,99967.60
2022-11-24T00:45:13.913Z,99964.00
2022-11-24T00:47:50.875Z,99965.80
2022-11-24T00:50:27.898Z,99967.00
2022-11-24T00:53:05.245Z,99970.20
2022-11-24T00:55:41.840Z,99972.20
2022-11-24T00:58:17.853Z,99970.00
2022-11-24T01:00:54.769Z,99967.20
2022-11-24T01:03:31.822Z,99969.60
2022-11-24T01:06:14.436Z,99974.80
2022-11-24T01:08:52.419Z,99982.00
2022-11-24T01:11:51.804Z,99982.60
2022-11-24T01:14:28.907Z,99980.60
2022-11-24T01:17:05.849Z,99985.60
2022-11-24T01:19:42.770Z,99985.80
2022-11-24T01:22:18.701Z,99987.80
2022-11-24T01:24:54.557Z,99993.80
2022-11-24T01:27:31.670Z,99999.80
2022-11-24T01:30:09.342Z,99994.40
2022-11-24T01:32:46.253Z,99995.00
2022-11-24T01:35:23.622Z,99996.40
2022-11-24T01:38:00.509Z,99997.60
2022-11-24T01:40:37.094Z,99999.60
2022-11-24T01:43:25.469Z,100000.60
2022-11-24T01:46:05.192Z,100006.40
2022-11-24T01:48:49.349Z,100009.20
2022-11-24T01:51:31.290Z,100012.40
2022-11-24T01:54:15.617Z,100012.80
2022-11-24T01:56:57.440Z,100013.40
2022-11-24T01:59:35.793Z,100021.00
2022-11-24T02:02:13.727Z,100016.80
2022-11-24T02:04:52.522Z,100012.80
2022-11-24T02:07:29.856Z,100016.00
2022-11-24T02:10:15.524Z,100014.20
2022-11-24T02:12:57.545Z,100017.40
2022-11-24T02:15:37.255Z,100019.60
2022-11-24T02:18:14.611Z,100023.20
2022-11-24T02:20:51.516Z,100023.40
2022-11-24T02:23:40.844Z,100028.80
2022-11-24T02:26:40.672Z,100034.40
2022-11-24T02:29:17.867Z,100040.60
2022-11-24T02:32:00.476Z,100046.40
2022-11-24T02:34:38.891Z,100050.40
2022-11-24T02:37:15.388Z,100050.20
2022-11-24T02:39:51.984Z,100056.60
2022-11-24T02:42:31.805Z,100053.20
2022-11-24T02:45:14.180Z,100054.20
2022-11-24T02:47:50.619Z,100061.00
2022-11-24T02:50:27.045Z,100073.40
2022-11-24T02:53:03.589Z,100073.20
2022-11-24T02:55:40.245Z,100071.60
2022-11-24T02:58:17.052Z,100076.20
2022-11-24T03:00:57.996Z,100072.80
2022-11-24T03:03:35.726Z,100076.40
2022-11-24T03:06:12.263Z,100080.80
2022-11-24T03:08:49.029Z,100080.80
2022-11-24T03:11:25.075Z,100084.80
2022-11-24T03:14:01.922Z,100087.00
2022-11-24T03:16:39.286Z,100085.00
2022-11-24T03:19:17.308Z,100087.00
2022-11-24T03:21:54.047Z,100092.40
2022-11-24T03:24:31.919Z,100089.00
2022-11-24T03:27:09.255Z,100093.20
2022-11-24T03:29:46.048Z,100101.60
2022-11-24T03:32:22.655Z,100102.40
2022-11-24T03:35:00.263Z,100100.00
2022-11-24T03:37:37.524Z,100095.60
2022-11-24T03:40:20.203Z,100097.20
2022-11-24T03:42:56.647Z,100106.00
2022-11-24T03:45:49.077Z,100103.60
2022-11-24T03:48:26.643Z,100104.80
2022-11-24T03:51:05.362Z,100108.00
2022-11-24T03:53:41.765Z,100106.20
2022-11-24T03:56:19.027Z,100104.20
2022-11-24T03:58:55.731Z,100102.80
2022-11-24T04:01:33.445Z,100105.60
2022-11-24T04:04:12.978Z,100102.80
2022-11-24T04:06:49.774Z,100108.60
2022-11-24T04:09:26.530Z,100112.20
2022-11-24T04:12:19.304Z,100116.40
2022-11-24T04:14:56.325Z,100119.00
2022-11-24T04:17:32.171Z,100122.00
2022-11-24T04:20:13.295Z,100124.40
2022-11-24T04:22:51.502Z,100131.60
2022-11-24T04:25:28.492Z,100138.80
2022-11-24T04:28:06.008Z,100134.20
2022-11-24T04:30:45.421Z,100140.60
2022-11-24T04:33:22.314Z,100140.20
2022-11-24T04:35:59.984Z,100138.20
2022-11-24T04:39:23.250Z,100144.80
2022-11-24T04:41:32.976Z,100144.80
2022-11-24T04:44:09.782Z,100140.40
2022-11-24T04:46:46.799Z,100143.60
2022-11-24T04:49:23.743Z,100148.20
2022-11-24T04:51:59.681Z,100148.80
2022-11-24T04:54:36.839Z,100144.00
2022-11-24T04:57:19.144Z,100146.20
2022-11-24T04:59:56.253Z,100144.60
2022-11-24T05:02:32.331Z,100149.60
2022-11-24T05:05:10.366Z,100156.20
2022-11-24T05:07:46.071Z,100164.60
2022-11-24T05:10:40.280Z,100167.80
2022-11-24T05:13:18.650Z,100175.60
2022-11-24T05:15:55.517Z,100173.40
2022-11-24T05:18:32.610Z,100177.40
2022-11-24T05:21:09.308Z,100186.20
2022-11-24T05:23:45.835Z,100187.80
2022-11-24T05:26:23.318Z,100199.00
2022-11-24T05:29:00.149Z,100202.00
2022-11-24T05:31:36.066Z,100205.80
2022-11-24T05:34:14.360Z,100209.20
2022-11-24T05:36:56.707Z,100219.20
2022-11-24T05:39:33.570Z,100227.20
2022-11-24T05:42:28.892Z,100228.00
2022-11-24T05:45:06.482Z,100230.40
2022-11-24T05:47:44.887Z,100234.20
2022-11-24T05:50:23.875Z,100244.80
2022-11-24T05:53:04.444Z,100257.40
2022-11-24T05:55:42.195Z,100271.60
2022-11-24T05:58:18.093Z,100279.20
2022-11-24T06:00:54.768Z,100284.80
2022-11-24T06:03:31.364Z,100297.00
2022-11-24T06:06:09.406Z,100304.20
2022-11-24T06:08:46.221Z,100304.00
2022-11-24T06:11:22.836Z,100302.40
2022-11-24T06:13:58.895Z,100303.00
2022-11-24T06:16:35.669Z,100303.40
2022-11-24T06:19:13.894Z,100313.00
2022-11-24T06:21:50.800Z,100327.40
2022-11-24T06:24:27.507Z,100331.20
2022-11-24T06:27:04.647Z,100323.60
2022-11-24T06:29:41.867Z,100335.60
2022-11-24T06:32:18.125Z,100345.00
2022-11-24T06:34:55.392Z,100344.60
2022-11-24T06:37:32.306Z,100344.40
2022-11-24T06:40:11.016Z,100347.00
2022-11-24T06:42:52.596Z,100349.20
2022-11-24T06:45:29.579Z,100356.20
2022-11-24T06:48:06.439Z,100359.00
2022-11-24T06:50:43.388Z,100360.80
2022-11-24T06:53:20.899Z,100356.00
2022-11-24T06:55:59.834Z,100347.20
2022-11-24T06:58:37.304Z,100346.40
2022-11-24T07:01:16.447Z,100351.00
2022-11-24T07:03:53.472Z,100348.60
2022-11-24T07:06:30.726Z,100352.40
2022-11-24T07:09:07.376Z,100363.60
2022-11-24T07:11:44.064Z,100371.80
2022-11-24T07:14:21.040Z,100371.20
2022-11-24T07:16:57.664Z,100371.40
2022-11-24T07:19:33.918Z,100377.20
2022-11-24T07:22:10.761Z,100385.60
2022-11-24T07:24:47.942Z,100388.60
2022-11-24T07:27:24.971Z,100390.00
2022-11-24T07:30:02.047Z,100386.00
2022-11-24T07:32:38.161Z,100389.40
2022-11-24T07:35:18.064Z,100390.00
2022-11-24T07:37:56.435Z,100388.00
2022-11-24T07:40:32.684Z,100390.20
2022-11-24T07:43:09.611Z,100393.20
2022-11-24T07:45:46.986Z,100400.00
2022-11-24T07:48:24.204Z,100407.80
2022-11-24T07:51:03.881Z,100414.80
2022-11-24T07:53:40.735Z,100417.40
2022-11-24T07:56:18.077Z,100416.20
2022-11-24T07:58:54.316Z,100420.00
2022-11-24T08:01:35.651Z,100420.40
2022-11-24T08:04:13.299Z,100425.20
2022-11-24T08:06:50.092Z,100431.80
2022-11-24T08:09:26.645Z,100435.80
2022-11-24T08:12:02.325Z,100443.40
2022-11-24T08:14:39.105Z,100446.00
2022-11-24T08:17:15.721Z,100452.60
2022-11-24T08:19:51.810Z,100460.60
2022-11-24T08:22:28.864Z,100461.80
2022-11-24T08:25:06.356Z,100458.00
2022-11-24T08:27:43.078Z,100462.40
2022-11-24T08:30:24.950Z,100466.80
2022-11-24T08:33:03.111Z,100469.00
2022-11-24T08:35:43.822Z,100468.60
2022-11-24T08:38:20.241Z,100474.00
2022-11-24T08:40:56.944Z,100478.60
2022-11-24T08:43:33.714Z,100476.80
2022-11-24T08:46:11.974Z,100475.80
2022-11-24T08:48:49.805Z,100479.20
2022-11-24T08:51:28.057Z,100479.60
2022-11-24T08:54:06.438Z,100484.20
2022-11-24T08:56:44.588Z,100480.60
2022-11-24T08:59:22.062Z,100480.40
2022-11-24T09:01:59.397Z,100488.40
2022-11-24T09:04:36.683Z,100484.80
2022-11-24T09:07:14.368Z,100483.00
2022-11-24T09:09:50.522Z,100482.40
2022-11-24T09:12:27.502Z,100492.60
2022-11-24T09:15:04.337Z,100499.40
2022-11-24T09:17:41.123Z,100516.00
2022-11-24T09:20:19.893Z,100525.80
2022-11-24T09:22:57.316Z,100532.40
2022-11-24T09:25:34.086Z,100522.80
2022-11-24T09:28:11.733Z,100514.80
2022-11-24T09:30:48.612Z,100514.00
2022-11-24T09:33:25.484Z,100513.20
2022-11-24T09:36:01.382Z,100513.80
2022-11-24T09:38:38.221Z,100511.60
2022-11-24T09:41:44.472Z,100506.40
2022-11-24T09:44:56.399Z,100504.80
2022-11-24T09:47:47.503Z,100508.60
2022-11-24T09:50:29.658Z,100503.00
2022-11-24T09:53:15.750Z,100497.80
2022-11-24T09:55:57.720Z,100494.20
2022-11-24T09:58:45.772Z,100494.00
2022-11-24T10:01:26.957Z,100484.80
2022-11-24T10:04:06.654Z,100482.00
2022-11-24T10:06:54.157Z,100480.60
2022-11-24T10:13:08.077Z,100483.40
2022-11-24T10:15:57.897Z,100482.60
2022-11-24T10:18:51.156Z,100486.20
2022-11-24T10:21:54.827Z,100493.00
2022-11-24T10:25:20.755Z,100493.80
2022-11-24T10:28:05.356Z,100497.00
2022-11-24T10:30:42.799Z,100497.20
2022-11-24T10:33:30.395Z,100493.80
2022-11-24T10:36:16.411Z,100496.80
2022-11-24T10:39:05.540Z,100503.20
2022-11-24T10:41:54.673Z,100496.20
2022-11-24T10:44:31.364Z,100493.40
2022-11-24T10:47:12.998Z,100498.20
2022-11-24T10:49:57.899Z,100502.60
2022-11-24T10:52:43.837Z,100503.60
2022-11-24T10:55:21.818Z,100503.60
2022-11-24T10:58:12.070Z,100504.20
2022-11-24T11:00:49.074Z,100509.00
2022-11-24T11:03:27.588Z,100513.40
2022-11-24T11:06:14.704Z,100511.60
2022-11-24T11:08:51.366Z,100509.00
2022-11-24T11:11:31.941Z,100507.00
2022-11-24T11:14:09.908Z,100506.60
2022-11-24T11:16:47.423Z,100504.80
2022-11-24T11:19:50.336Z,100504.80
2022-11-24T11:22:33.790Z,100506.00
2022-11-24T11:25:28.969Z,100500.40
2022-11-24T11:28:31.660Z,100493.40
2022-11-24T11:31:22.448Z,100491.00
2022-11-24T11:34:23.717Z,100492.00
2022-11-24T11:37:05.494Z,100491.40
2022-11-24T11:39:49.051Z,100497.60
2022-11-24T11:45:45.271Z,100509.00
2022-11-24T11:48:43.190Z,100504.60
2022-11-24T11:51:49.126Z,100503.80
2022-11-24T11:54:42.592Z,100503.80
2022-11-24T11:57:36.018Z,100508.00
2022-11-24T12:00:22.623Z,100501.40
2022-11-24T12:03:45.001Z,100504.40
2022-11-24T12:06:46.439Z,100501.80
2022-11-24T12:09:43.204Z,100499.20
2022-11-24T12:12:48.254Z,100498.80
2022-11-24T12:15:34.407Z,100497.20
2022-11-24T12:18:56.046Z,100497.80
2022-11-24T12:21:30.511Z,100496.60
2022-11-24T12:24:20.821Z,100493.60
2022-11-24T12:27:06.899Z,100495.40
2022-11-24T12:31:30.768Z,100488.20
2022-11-24T12:34:32.708Z,100494.40
2022-11-24T12:37:36.503Z,100502.80
2022-11-24T17:29:13.514Z,100677.40
2022-11-24T17:44:30.034Z,100707.60
2022-11-24T17:47:06.413Z,100700.40
2022-11-24T17:49:43.862Z,100696.40
